Time;durP1;ratioP1;P1;durP2;ratioP2;P2;SDS_P1;SDS_P2;PMS_P1;PMS_P2;Temp;Humidity;BMP_temperature;BMP_pressure;BME280_temperature;BME280_humidity;BME280_pressure;Samples;Min_cycle;Max_cycle;Signal;HPM_P1;HPM_P2
2021/12/13 00:02:35;;;;;;;2.80;2.60;;;22.20;45.20;;;;;;5036255;28;20171;-69
2021/12/13 00:05:21;;;;;;;3.17;2.90;;;22.10;45.00;;;;;;5034783;28;20249;-69
2021/12/13 00:07:57;;;;;;;3.17;2.88;;;22.20;45.00;;;;;;5034629;28;20198;-69
2021/12/13 00:10:41;;;;;;;2.80;2.60;;;22.10;44.90;;;;;;5036147;28;20175;-70
2021/12/13 00:13:19;;;;;;;2.20;2.10;;;22.10;44.90;;;;;;5036005;28;20624;-69
2021/12/13 00:15:56;;;;;;;2.58;2.40;;;22.10;45.00;;;;;;5034926;28;20258;-69
2021/12/13 00:18:36;;;;;;;2.60;2.40;;;22.10;45.00;;;;;;5051019;28;20603;-69
2021/12/13 00:21:16;;;;;;;2.55;2.35;;;22.10;44.90;;;;;;5035033;28;20168;-69
2021/12/13 00:24:12;;;;;;;2.97;2.78;;;22.20;45.00;;;;;;5034601;28;20210;-69
2021/12/13 00:26:49;;;;;;;2.80;2.60;;;22.20;45.00;;;;;;5018118;28;20214;-69
2021/12/13 00:29:25;;;;;;;2.53;2.33;;;22.20;45.00;;;;;;5051081;28;20222;-69
2021/12/13 00:32:22;;;;;;;2.25;2.15;;;22.10;45.00;;;;;;5034409;28;20187;-69
2021/12/13 00:34:57;;;;;;;2.63;2.42;;;22.10;44.90;;;;;;5051153;28;20262;-69
2021/12/13 00:37:49;;;;;;;2.63;2.42;;;22.10;45.00;;;;;;5034444;28;20218;-69
2021/12/13 00:40:35;;;;;;;2.47;2.28;;;22.20;45.00;;;;;;5034661;28;20194;-69
2021/12/13 00:43:09;;;;;;;2.75;2.55;;;22.10;44.90;;;;;;5034527;28;20179;-69
2021/12/13 00:45:47;;;;;;;2.80;2.60;;;22.10;44.90;;;;;;5034083;28;20292;-69
2021/12/13 00:48:15;;;;;;;2.53;2.33;;;22.10;45.00;;;;;;5034222;28;20194;-69
2021/12/13 00:50:46;;;;;;;2.42;2.22;;;22.10;45.00;;;;;;5017641;28;20187;-69
2021/12/13 00:53:18;;;;;;;2.50;2.30;;;22.10;44.90;;;;;;5035277;28;20172;-69
2021/12/13 00:55:46;;;;;;;2.35;2.22;;;22.10;44.90;;;;;;5050990;28;20182;-69
2021/12/13 00:58:23;;;;;;;2.50;2.30;;;22.10;45.00;;;;;;5033549;28;20215;-69
2021/12/13 01:01:06;;;;;;;2.80;2.60;;;22.20;45.10;;;;;;5033948;28;20206;-69
2021/12/13 01:03:44;;;;;;;2.90;2.70;;;22.20;45.10;;;;;;5050476;28;20179;-69
2021/12/13 01:06:53;;;;;;;3.00;2.80;;;22.10;45.00;;;;;;5033747;28;20638;-69
2021/12/13 01:10:20;;;;;;;2.70;2.50;;;22.10;45.00;;;;;;5050058;28;20290;-69
2021/12/13 01:12:49;;;;;;;3.03;2.83;;;22.10;45.00;;;;;;5033754;28;20183;-69
2021/12/13 01:15:37;;;;;;;3.17;2.90;;;22.10;45.00;;;;;;5033636;28;20203;-69
2021/12/13 01:21:10;;;;;;;2.47;2.28;;;22.10;44.90;;;;;;5033541;28;20253;-69
2021/12/13 01:23:49;;;;;;;2.50;2.30;;;22.10;45.00;;;;;;5050124;28;20203;-69
2021/12/13 01:26:38;;;;;;;2.80;2.60;;;22.10;45.00;;;;;;5047593;28;20181;-69
2021/12/13 01:29:13;;;;;;;3.03;2.83;;;22.10;45.00;;;;;;5033476;28;20183;-69
2021/12/13 01:32:01;;;;;;;3.40;3.10;;;22.20;45.10;;;;;;5017977;28;20190;-70
2021/12/13 01:34:30;;;;;;;3.20;3.00;;;22.20;45.00;;;;;;5033139;28;20210;-69
2021/12/13 01:37:24;;;;;;;2.55;2.40;;;22.10;44.90;;;;;;5016793;28;20274;-69
2021/12/13 01:39:53;;;;;;;2.88;2.67;;;22.10;45.00;;;;;;5033587;28;20203;-69
2021/12/13 01:42:29;;;;;;;2.72;2.45;;;22.10;45.10;;;;;;5033301;28;20190;-70
2021/12/13 01:45:04;;;;;;;2.67;2.47;;;22.10;45.00;;;;;;5016694;28;20214;-69
2021/12/13 01:47:38;;;;;;;2.60;2.40;;;22.10;45.00;;;;;;5033031;28;20260;-69
2021/12/13 01:50:11;;;;;;;3.30;3.00;;;22.10;45.00;;;;;;5033649;28;20234;-69
2021/12/13 01:52:39;;;;;;;3.17;2.97;;;22.10;45.00;;;;;;5033777;28;20262;-69
2021/12/13 01:55:42;;;;;;;2.85;2.65;;;22.10;45.00;;;;;;5032751;28;20628;-69
2021/12/13 01:58:37;;;;;;;2.25;2.08;;;22.10;45.00;;;;;;5032705;28;20365;-69
2021/12/13 02:01:21;;;;;;;2.85;2.33;;;22.10;45.00;;;;;;5032797;28;20171;-69
2021/12/13 02:03:57;;;;;;;2.70;2.50;;;22.10;45.00;;;;;;5032579;28;20203;-69
2021/12/13 02:06:45;;;;;;;3.20;3.00;;;22.10;45.00;;;;;;5032610;28;20180;-69
2021/12/13 02:09:19;;;;;;;3.42;3.08;;;22.10;45.00;;;;;;5032464;28;20238;-69
2021/12/13 02:11:51;;;;;;;3.13;2.92;;;22.10;45.00;;;;;;5032420;28;20183;-69
2021/12/13 02:14:25;;;;;;;2.58;2.38;;;22.10;45.00;;;;;;5032607;28;20215;-70
2021/12/13 02:19:32;;;;;;;2.60;2.40;;;22.10;45.00;;;;;;5032164;28;20191;-69
2021/12/13 02:22:33;;;;;;;3.00;2.80;;;22.10;45.00;;;;;;5031831;28;20248;-69
2021/12/13 02:25:25;;;;;;;2.90;2.70;;;22.20;45.70;;;;;;5015694;28;20203;-69
2021/12/13 02:28:15;;;;;;;3.53;3.22;;;22.10;45.00;;;;;;5032043;28;20191;-69
2021/12/13 02:30:53;;;;;;;2.90;2.70;;;22.10;45.00;;;;;;5032068;28;20190;-69
2021/12/13 02:33:31;;;;;;;3.03;2.83;;;22.10;45.00;;;;;;5032482;28;20269;-69
2021/12/13 02:36:05;;;;;;;2.63;2.42;;;22.10;45.10;;;;;;5032176;28;20175;-69
2021/12/13 02:38:31;;;;;;;2.95;2.75;;;22.10;45.00;;;;;;5031869;28;20199;-69
2021/12/13 02:40:59;;;;;;;3.15;2.88;;;22.10;45.00;;;;;;5031919;28;20703;-68
2021/12/13 02:43:32;;;;;;;3.05;2.85;;;22.10;45.00;;;;;;5033199;28;20178;-69
2021/12/13 02:45:59;;;;;;;3.40;3.10;;;22.10;45.00;;;;;;5018261;22;20236;-66
2021/12/13 02:48:38;;;;;;;3.20;2.90;;;22.10;45.10;;;;;;4993193;28;20185;-66
2021/12/13 02:51:18;;;;;;;3.30;3.10;;;22.20;45.10;;;;;;4993687;28;20192;-66
2021/12/13 02:54:00;;;;;;;3.40;3.10;;;22.10;45.00;;;;;;5008790;28;20220;-66
2021/12/13 02:56:31;;;;;;;3.30;3.00;;;22.10;44.90;;;;;;5028495;28;20262;-66
2021/12/13 02:59:00;;;;;;;2.90;2.70;;;22.10;45.00;;;;;;5028135;28;20211;-66
2021/12/13 03:01:52;;;;;;;3.00;2.80;;;22.10;45.00;;;;;;5013163;28;20237;-66
2021/12/13 03:04:24;;;;;;;2.70;2.50;;;22.10;45.00;;;;;;5012169;28;20186;-66
2021/12/13 03:07:25;;;;;;;3.08;2.78;;;22.20;45.10;;;;;;5028327;28;20640;-66
2021/12/13 03:09:55;;;;;;;3.70;3.40;;;22.10;45.00;;;;;;5024480;28;20199;-66
2021/12/13 03:12:26;;;;;;;3.83;3.53;;;22.10;45.00;;;;;;5028258;28;20275;-66
2021/12/13 03:14:58;;;;;;;3.20;3.00;;;22.10;44.90;;;;;;5028419;28;20207;-66
2021/12/13 03:17:32;;;;;;;3.10;2.90;;;22.10;45.00;;;;;;5011575;28;20295;-65
2021/12/13 03:20:19;;;;;;;3.05;2.85;;;22.10;45.00;;;;;;5011688;28;20175;-66
2021/12/13 03:23:05;;;;;;;2.80;2.47;;;22.10;45.00;;;;;;4995323;28;20180;-68
2021/12/13 03:25:40;;;;;;;3.13;2.92;;;22.10;45.00;;;;;;5011439;28;20413;-68
2021/12/13 03:28:20;;;;;;;3.33;3.03;;;22.10;45.00;;;;;;5011255;28;20184;-69
2021/12/13 03:31:09;;;;;;;3.00;2.80;;;22.20;45.10;;;;;;4995108;28;20282;-69
2021/12/13 03:34:07;;;;;;;3.60;3.30;;;22.10;45.00;;;;;;5011263;28;20559;-69
2021/12/13 03:37:16;;;;;;;3.05;2.85;;;22.10;45.00;;;;;;5011335;28;20183;-69
2021/12/13 03:39:50;;;;;;;3.05;2.85;;;22.10;45.00;;;;;;5012354;28;20218;-69
2021/12/13 03:42:37;;;;;;;3.10;2.90;;;22.10;45.00;;;;;;5027954;28;20182;-68
2021/12/13 03:45:23;;;;;;;3.45;3.15;;;22.10;45.00;;;;;;5027884;28;20314;-69
2021/12/13 03:47:56;;;;;;;2.92;2.70;;;22.10;45.00;;;;;;5027947;28;20180;-69
2021/12/13 03:50:33;;;;;;;2.90;2.70;;;22.10;45.10;;;;;;5026216;28;20219;-69
2021/12/13 03:53:09;;;;;;;2.80;2.60;;;22.10;45.10;;;;;;5027549;28;20259;-69
2021/12/13 03:55:39;;;;;;;3.15;2.85;;;22.10;45.10;;;;;;5027638;28;20279;-69
2021/12/13 03:58:10;;;;;;;2.78;2.58;;;22.10;45.10;;;;;;5012101;28;20266;-69
2021/12/13 04:00:44;;;;;;;2.95;2.65;;;22.10;45.00;;;;;;4994801;28;20187;-69
2021/12/13 04:03:15;;;;;;;3.15;2.95;;;22.10;45.00;;;;;;5027828;28;20177;-69
2021/12/13 04:05:41;;;;;;;3.30;3.10;;;22.10;45.00;;;;;;5011104;28;20204;-69
2021/12/13 04:08:11;;;;;;;3.50;3.20;;;22.10;45.10;;;;;;5027418;28;20188;-69
2021/12/13 04:10:44;;;;;;;3.97;3.10;;;22.10;45.00;;;;;;5027791;28;20215;-69
2021/12/13 04:13:15;;;;;;;3.95;3.60;;;22.10;45.00;;;;;;5011282;28;20180;-69
2021/12/13 04:21:27;;;;;;;3.03;2.83;;;22.10;45.10;;;;;;5012602;28;20180;-69
2021/12/13 04:24:04;;;;;;;2.90;2.70;;;22.10;45.10;;;;;;5027998;28;20222;-69
2021/12/13 04:26:38;;;;;;;3.05;2.85;;;22.10;45.00;;;;;;5011339;28;20226;-69
2021/12/13 04:29:14;;;;;;;3.30;3.00;;;22.10;45.10;;;;;;5010901;28;20172;-68
2021/12/13 04:31:41;;;;;;;3.70;3.40;;;22.10;45.70;;;;;;5010928;28;20274;-68
2021/12/13 04:34:07;;;;;;;4.00;3.70;;;22.10;45.00;;;;;;5010858;28;20188;-68
2021/12/13 04:36:45;;;;;;;3.47;3.17;;;22.10;45.00;;;;;;5027274;28;20201;-69
2021/12/13 04:39:33;;;;;;;2.80;2.60;;;22.10;45.00;;;;;;5011862;28;20196;-68
2021/12/13 04:42:09;;;;;;;2.70;2.50;;;22.10;45.10;;;;;;4994558;28;20216;-68
2021/12/13 04:44:50;;;;;;;2.97;2.75;;;22.10;45.00;;;;;;5012136;28;20212;-68
2021/12/13 04:47:25;;;;;;;2.85;2.65;;;22.10;45.10;;;;;;5030810;28;20334;-69
2021/12/13 04:50:26;;;;;;;3.45;3.15;;;22.10;45.10;;;;;;5030677;28;20187;-69
2021/12/13 04:52:54;;;;;;;3.83;3.47;;;22.10;45.00;;;;;;5012180;28;20203;-68
2021/12/13 04:55:34;;;;;;;3.38;3.08;;;22.10;45.10;;;;;;4997946;28;20236;-69
2021/12/13 04:58:05;;;;;;;3.40;3.10;;;22.10;45.10;;;;;;5013976;28;20212;-68
2021/12/13 05:00:37;;;;;;;2.83;2.58;;;22.10;45.10;;;;;;5030645;28;20208;-69
2021/12/13 05:03:06;;;;;;;2.70;2.50;;;22.10;45.10;;;;;;5030600;28;20291;-69
2021/12/13 05:05:35;;;;;;;2.95;2.75;;;22.10;45.10;;;;;;5030560;28;20311;-69
2021/12/13 05:08:02;;;;;;;2.80;2.60;;;22.10;45.10;;;;;;5013778;28;20191;-69
2021/12/13 05:10:33;;;;;;;2.90;2.70;;;22.10;45.10;;;;;;4997668;28;20253;-68
2021/12/13 05:13:15;;;;;;;3.47;3.17;;;22.10;45.00;;;;;;5030356;28;20191;-69
2021/12/13 05:15:52;;;;;;;3.47;3.17;;;22.10;45.00;;;;;;5015086;28;20208;-69
2021/12/13 05:18:27;;;;;;;4.05;3.65;;;22.10;45.00;;;;;;5013496;28;20212;-69
2021/12/13 05:21:08;;;;;;;3.33;3.03;;;22.10;45.70;;;;;;5014981;28;20233;-69
2021/12/13 05:23:54;;;;;;;2.92;2.70;;;22.10;45.00;;;;;;5030139;28;20234;-69
2021/12/13 05:26:44;;;;;;;3.10;2.90;;;22.10;45.70;;;;;;5030144;28;20257;-69
2021/12/13 05:29:27;;;;;;;2.90;2.70;;;22.10;45.10;;;;;;5014675;28;20169;-69
2021/12/13 05:32:09;;;;;;;2.97;2.78;;;22.10;45.00;;;;;;5013688;28;20169;-68
2021/12/13 05:34:54;;;;;;;3.67;3.38;;;22.10;45.00;;;;;;5013496;28;20207;-69
2021/12/13 05:37:21;;;;;;;3.50;3.20;;;22.10;45.70;;;;;;5030206;28;20216;-68
2021/12/13 05:40:07;;;;;;;3.70;3.40;;;22.10;45.00;;;;;;5029781;28;20180;-69
2021/12/13 05:42:58;;;;;;;3.17;2.92;;;22.10;45.10;;;;;;5029972;28;20266;-68
2021/12/13 05:45:39;;;;;;;3.20;2.90;;;22.10;45.00;;;;;;5012574;28;20216;-69
2021/12/13 05:48:16;;;;;;;3.45;3.15;;;22.10;45.70;;;;;;4996662;28;20227;-69
2021/12/13 05:50:52;;;;;;;3.45;3.15;;;22.10;45.00;;;;;;5029746;28;20184;-69
2021/12/13 05:53:22;;;;;;;3.00;2.80;;;22.10;45.00;;;;;;5013082;28;20267;-68
2021/12/13 05:56:08;;;;;;;3.03;2.83;;;22.10;45.10;;;;;;5012822;28;20206;-69
2021/12/13 05:58:43;;;;;;;2.70;2.50;;;22.10;45.00;;;;;;5013976;28;20227;-69
2021/12/13 06:01:30;;;;;;;3.00;2.80;;;22.20;45.20;;;;;;5029577;28;20226;-68
2021/12/13 06:04:08;;;;;;;2.90;2.70;;;22.10;45.10;;;;;;5029443;28;20172;-68
2021/12/13 06:06:51;;;;;;;2.83;2.63;;;22.20;45.20;;;;;;5014136;28;20180;-68
2021/12/13 06:09:49;;;;;;;3.35;3.05;;;22.20;45.20;;;;;;5013016;28;20180;-68
2021/12/13 06:12:37;;;;;;;3.45;3.15;;;22.10;45.10;;;;;;5029386;28;20175;-69
2021/12/13 06:15:17;;;;;;;2.80;2.60;;;22.10;45.00;;;;;;5014142;28;20242;-69
2021/12/13 06:17:56;;;;;;;2.67;2.47;;;22.10;45.10;;;;;;5029161;28;20216;-69
2021/12/13 06:20:30;;;;;;;2.80;2.60;;;22.10;45.20;;;;;;5012736;28;20172;-69
2021/12/13 06:23:16;;;;;;;2.95;2.75;;;22.10;45.20;;;;;;5013773;28;20188;-69
2021/12/13 06:25:49;;;;;;;3.20;2.90;;;22.10;45.10;;;;;;5012464;28;20204;-68
2021/12/13 06:28:23;;;;;;;3.20;2.92;;;22.10;45.10;;;;;;4996223;28;20184;-69
2021/12/13 06:31:03;;;;;;;3.50;3.17;;;22.10;45.10;;;;;;4996069;28;20634;-69
2021/12/13 06:33:54;;;;;;;3.28;2.97;;;22.10;45.10;;;;;;5028877;28;20309;-69
2021/12/13 06:36:47;;;;;;;2.70;2.50;;;22.10;45.10;;;;;;5028816;28;20208;-69
2021/12/13 06:39:27;;;;;;;3.00;2.80;;;22.10;45.20;;;;;;4995434;28;20212;-69
2021/12/13 06:42:01;;;;;;;2.83;2.63;;;22.10;45.20;;;;;;5013531;28;20179;-69
2021/12/13 06:44:44;;;;;;;3.00;2.80;;;22.10;45.20;;;;;;5028794;28;20270;-69
2021/12/13 06:47:14;;;;;;;3.45;3.15;;;22.10;45.20;;;;;;5028709;28;20243;-70
2021/12/13 06:49:48;;;;;;;3.53;3.22;;;22.10;45.20;;;;;;5012363;28;20191;-69
2021/12/13 06:52:13;;;;;;;3.28;3.00;;;22.10;45.20;;;;;;5012383;28;20247;-69
2021/12/13 06:55:01;;;;;;;2.50;2.30;;;22.10;45.80;;;;;;5028503;28;20295;-69
2021/12/13 06:57:30;;;;;;;2.88;2.50;;;22.00;45.10;;;;;;5028204;28;20303;-69
2021/12/13 07:00:07;;;;;;;2.70;2.50;;;22.10;45.20;;;;;;5028384;28;20184;-69
2021/12/13 07:02:56;;;;;;;3.15;2.85;;;22.10;45.30;;;;;;5028286;28;20596;-69
2021/12/13 07:05:35;;;;;;;3.15;2.85;;;22.10;45.20;;;;;;5027959;28;20218;-69
2021/12/13 07:08:05;;;;;;;3.10;2.80;;;22.10;45.20;;;;;;5011514;28;20278;-69
2021/12/13 07:10:43;;;;;;;4.05;3.67;;;22.10;45.20;;;;;;5015100;28;20202;-69
2021/12/13 07:13:20;;;;;;;3.20;3.00;;;22.10;45.20;;;;;;5039139;28;20266;-69
2021/12/13 07:16:15;;;;;;;3.42;3.13;;;22.10;45.20;;;;;;5008282;28;20298;-69
2021/12/13 07:19:02;;;;;;;2.90;2.70;;;22.00;45.20;;;;;;5029463;28;20231;-69
2021/12/13 07:21:48;;;;;;;3.35;3.08;;;22.00;45.10;;;;;;5028106;28;20713;-69
2021/12/13 07:24:30;;;;;;;3.13;2.90;;;22.10;45.20;;;;;;5011900;28;20180;-69
2021/12/13 07:27:14;;;;;;;3.40;3.10;;;22.10;45.20;;;;;;5028485;28;20184;-69
2021/12/13 07:29:56;;;;;;;3.00;2.80;;;22.00;45.10;;;;;;5012989;28;20702;-69
2021/12/13 07:32:35;;;;;;;2.75;2.55;;;22.00;45.10;;;;;;5030237;28;20179;-69
2021/12/13 07:35:21;;;;;;;2.80;2.60;;;22.00;45.20;;;;;;5031217;28;20203;-69
2021/12/13 07:37:52;;;;;;;3.40;2.88;;;22.10;45.30;;;;;;5030915;28;20210;-69
2021/12/13 07:40:41;;;;;;;3.53;3.22;;;22.10;45.30;;;;;;5047654;28;20222;-69
2021/12/13 07:43:09;;;;;;;3.53;3.22;;;22.10;45.20;;;;;;5026198;28;20188;-69
2021/12/13 07:45:54;;;;;;;3.30;3.00;;;22.00;45.10;;;;;;5039097;28;20215;-69
2021/12/13 07:48:31;;;;;;;3.10;2.90;;;22.00;45.10;;;;;;5047741;28;20187;-69
2021/12/13 07:51:25;;;;;;;3.05;2.85;;;22.10;45.20;;;;;;5020115;28;20175;-69
2021/12/13 07:53:57;;;;;;;3.10;2.80;;;22.10;45.20;;;;;;5012586;28;20184;-69
2021/12/13 07:56:46;;;;;;;3.13;2.92;;;22.10;45.20;;;;;;5027515;28;20231;-70
2021/12/13 07:59:30;;;;;;;3.92;3.63;;;22.20;45.30;;;;;;5020213;28;20326;-69
2021/12/13 08:02:16;;;;;;;3.75;3.45;;;22.10;45.20;;;;;;5027665;28;20202;-69
2021/12/13 08:05:12;;;;;;;3.80;3.50;;;22.10;45.10;;;;;;5010619;28;20204;-70
2021/12/13 08:07:47;;;;;;;3.53;3.22;;;22.10;45.20;;;;;;5007705;28;20284;-69
2021/12/13 08:10:41;;;;;;;3.60;3.30;;;22.20;45.30;;;;;;5008218;28;20212;-69
2021/12/13 08:13:17;;;;;;;4.82;3.88;;;22.10;45.20;;;;;;4990934;28;20201;-69
2021/12/13 08:16:03;;;;;;;5.85;5.32;;;22.10;45.20;;;;;;4991466;28;20302;-69
2021/12/13 08:18:37;;;;;;;5.72;5.15;;;22.10;45.20;;;;;;4976171;28;20216;-68
2021/12/13 08:21:25;;;;;;;4.38;4.07;;;22.10;45.20;;;;;;5010356;28;20192;-68
2021/12/13 08:24:01;;;;;;;4.15;3.85;;;22.10;45.20;;;;;;4995404;28;20204;-69
2021/12/13 08:26:41;;;;;;;4.28;3.88;;;22.10;45.30;;;;;;4996261;28;20244;-69
2021/12/13 08:29:39;;;;;;;4.78;4.38;;;22.20;45.30;;;;;;4994891;28;20185;-69
2021/12/13 08:32:20;;;;;;;6.68;6.07;;;22.20;45.30;;;;;;4995947;28;20227;-68
2021/12/13 08:34:53;;;;;;;5.45;4.95;;;22.10;45.20;;;;;;4995096;28;20209;-69
2021/12/13 08:37:31;;;;;;;5.53;5.03;;;22.10;45.20;;;;;;5006249;28;20272;-69
2021/12/13 08:40:08;;;;;;;4.90;4.50;;;22.10;45.20;;;;;;5029479;28;20191;-69
2021/12/13 08:42:42;;;;;;;5.53;5.03;;;22.10;45.30;;;;;;5013740;28;20277;-69
2021/12/13 08:45:35;;;;;;;5.18;4.68;;;22.20;45.30;;;;;;5006106;28;20223;-69
2021/12/13 08:48:20;;;;;;;4.57;4.03;;;22.10;45.30;;;;;;5018431;28;20192;-69
2021/12/13 08:51:00;;;;;;;5.32;4.93;;;22.10;45.30;;;;;;5045744;22;20230;-69
2021/12/13 08:53:36;;;;;;;5.00;4.60;;;22.10;45.20;;;;;;5011287;28;20202;-67
2021/12/13 08:56:20;;;;;;;5.13;4.72;;;22.20;45.30;;;;;;5031447;28;20215;-69
2021/12/13 08:59:03;;;;;;;4.80;4.40;;;22.10;45.20;;;;;;5016178;28;20214;-69
2021/12/13 09:02:01;;;;;;;4.60;4.20;;;22.10;45.20;;;;;;5049003;28;20249;-70
2021/12/13 09:04:42;;;;;;;5.53;4.90;;;22.10;45.30;;;;;;5026361;28;20211;-69
2021/12/13 09:07:13;;;;;;;5.00;4.30;;;22.10;45.30;;;;;;5013077;28;20188;-70
2021/12/13 09:09:46;;;;;;;5.30;4.80;;;22.10;45.20;;;;;;5024727;28;20207;-70
2021/12/13 09:12:15;;;;;;;5.30;4.80;;;22.10;45.30;;;;;;5027082;28;20206;-70
2021/12/13 09:14:50;;;;;;;4.63;4.22;;;22.10;45.20;;;;;;5032228;28;20191;-70
2021/12/13 09:17:41;;;;;;;4.80;4.40;;;22.10;45.20;;;;;;5065605;28;20183;-70
2021/12/13 09:20:32;;;;;;;4.63;4.20;;;22.10;45.30;;;;;;5027933;28;20711;-70
2021/12/13 09:23:17;;;;;;;4.93;4.53;;;22.10;45.30;;;;;;5013194;28;20211;-70
2021/12/13 09:25:59;;;;;;;5.28;4.88;;;22.10;45.20;;;;;;5014440;28;20192;-69
2021/12/13 09:28:34;;;;;;;4.50;4.13;;;22.20;45.30;;;;;;5031519;28;20172;-70
2021/12/13 09:31:20;;;;;;;4.68;4.28;;;22.10;45.20;;;;;;5029094;28;20292;-69
2021/12/13 09:34:14;;;;;;;5.03;4.63;;;22.10;45.20;;;;;;5013074;28;20275;-69
2021/12/13 09:36:44;;;;;;;4.78;4.38;;;22.10;45.30;;;;;;4992490;28;20255;-69
2021/12/13 09:39:17;;;;;;;4.75;4.35;;;22.20;45.30;;;;;;5029443;28;20216;-69
2021/12/13 09:42:12;;;;;;;5.32;4.82;;;22.20;45.30;;;;;;5012649;28;20223;-69
2021/12/13 09:44:58;;;;;;;5.38;4.88;;;22.20;45.30;;;;;;5013758;28;20192;-70
2021/12/13 09:47:37;;;;;;;5.07;4.68;;;22.20;45.30;;;;;;5019595;28;20655;-69
2021/12/13 09:50:19;;;;;;;5.32;4.78;;;22.20;45.30;;;;;;5013710;28;20222;-69
2021/12/13 09:52:58;;;;;;;4.80;4.40;;;22.20;45.30;;;;;;5012619;28;20247;-69
2021/12/13 09:55:45;;;;;;;5.13;4.72;;;22.20;45.30;;;;;;5012593;28;20187;-69
2021/12/13 09:58:22;;;;;;;5.45;5.05;;;22.20;45.30;;;;;;5012283;28;20266;-70
2021/12/13 10:00:56;;;;;;;5.57;5.07;;;22.20;45.30;;;;;;5064682;28;20206;-70
2021/12/13 10:03:41;;;;;;;6.07;5.57;;;22.20;45.40;;;;;;5033119;28;20190;-68
2021/12/13 10:06:08;;;;;;;6.30;5.70;;;22.20;45.30;;;;;;5045887;28;20180;-69
2021/12/13 10:08:49;;;;;;;6.07;5.57;;;22.20;45.30;;;;;;5045883;28;20180;-69
2021/12/13 10:12:10;;;;;;;5.60;5.10;;;22.20;45.40;;;;;;5045830;28;20212;-68
2021/12/13 10:14:48;;;;;;;6.05;5.55;;;22.20;45.40;;;;;;4988527;28;20204;-68
2021/12/13 10:17:17;;;;;;;6.78;6.18;;;22.20;45.40;;;;;;5009931;28;20184;-68
2021/12/13 10:19:51;;;;;;;6.00;5.40;;;22.20;45.40;;;;;;5028809;28;20184;-69
2021/12/13 10:22:27;;;;;;;6.35;5.82;;;22.20;45.40;;;;;;5045237;28;20196;-69
2021/12/13 10:24:59;;;;;;;6.38;5.78;;;22.20;45.40;;;;;;5012581;28;20183;-68
2021/12/13 10:27:26;;;;;;;5.88;5.38;;;22.20;45.40;;;;;;5045613;28;20236;-68
2021/12/13 10:29:56;;;;;;;6.18;5.68;;;22.20;45.40;;;;;;5028367;28;20238;-68
2021/12/13 10:32:35;;;;;;;6.10;5.50;;;22.20;45.40;;;;;;5029151;28;20226;-68
2021/12/13 10:35:15;;;;;;;6.10;5.60;;;22.20;45.40;;;;;;5012446;28;20321;-68
2021/12/13 10:37:51;;;;;;;5.90;5.40;;;22.20;45.50;;;;;;5027929;28;20212;-68
2021/12/13 10:40:36;;;;;;;6.53;5.95;;;22.20;45.50;;;;;;5013324;28;20196;-67
2021/12/13 10:43:20;;;;;;;6.25;5.75;;;22.20;45.50;;;;;;5012761;28;20214;-68
2021/12/13 10:46:00;;;;;;;5.88;5.30;;;22.20;45.40;;;;;;5025426;28;20179;-69
2021/12/13 10:48:30;;;;;;;6.43;5.93;;;22.20;45.50;;;;;;5008702;28;20195;-69
2021/12/13 10:51:20;;;;;;;5.65;5.25;;;22.20;45.50;;;;;;4993220;28;20216;-68
2021/12/13 10:53:49;;;;;;;6.00;5.50;;;22.20;45.60;;;;;;5013326;28;20175;-69
2021/12/13 10:56:35;;;;;;;5.78;5.25;;;22.20;45.60;;;;;;5044988;28;20184;-69
2021/12/13 10:59:09;;;;;;;5.30;4.80;;;22.20;45.50;;;;;;5011517;28;20215;-69
2021/12/13 11:01:45;;;;;;;5.95;5.45;;;22.20;45.50;;;;;;5012202;28;20204;-68
2021/12/13 11:04:16;;;;;;;5.38;4.88;;;22.20;45.50;;;;;;5011934;28;20172;-69
2021/12/13 11:06:44;;;;;;;5.95;5.45;;;22.20;45.50;;;;;;5045019;28;20168;-68
2021/12/13 11:09:18;;;;;;;5.68;5.22;;;22.20;45.50;;;;;;5028201;28;20180;-68
2021/12/13 11:11:55;;;;;;;5.72;5.15;;;22.20;45.50;;;;;;5044815;28;20208;-68
2021/12/13 11:14:23;;;;;;;6.07;5.53;;;22.20;45.60;;;;;;5011675;28;20242;-69
2021/12/13 11:16:56;;;;;;;5.50;5.10;;;22.20;45.60;;;;;;5011555;28;20188;-69
2021/12/13 11:19:29;;;;;;;6.10;5.60;;;22.20;45.60;;;;;;5044547;28;20204;-68
2021/12/13 11:22:07;;;;;;;5.90;5.40;;;22.30;45.70;;;;;;5044591;28;20211;-69
2021/12/13 11:24:37;;;;;;;6.85;6.15;;;22.20;45.60;;;;;;5011784;28;20251;-69
2021/12/13 11:27:13;;;;;;;6.70;6.03;;;22.20;45.60;;;;;;5011572;28;20263;-69
2021/12/13 11:29:42;;;;;;;6.18;5.57;;;22.30;45.70;;;;;;5044393;28;20172;-69
2021/12/13 11:33:04;;;;;;;6.25;5.68;;;22.30;45.70;;;;;;5043146;28;20302;-69
2021/12/13 11:36:07;;;;;;;6.05;5.55;;;22.30;45.70;;;;;;5010890;28;20184;-68
2021/12/13 11:39:19;;;;;;;6.15;5.60;;;22.20;45.70;;;;;;5044371;28;20211;-69
2021/12/13 11:42:16;;;;;;;6.13;5.63;;;22.30;45.80;;;;;;5011338;28;20637;-69
2021/12/13 11:45:13;;;;;;;6.30;5.80;;;22.20;45.70;;;;;;4992943;28;20172;-69
2021/12/13 11:48:23;;;;;;;5.68;5.20;;;22.30;45.80;;;;;;4991712;28;20543;-69
2021/12/13 11:51:20;;;;;;;6.03;5.55;;;22.30;45.80;;;;;;4991780;28;20239;-69
2021/12/13 11:54:20;;;;;;;6.47;5.97;;;22.30;45.80;;;;;;5001681;28;20180;-69
2021/12/13 11:57:18;;;;;;;6.85;6.00;;;22.30;45.80;;;;;;5016455;28;20183;-69
2021/12/13 12:00:26;;;;;;;5.95;5.30;;;22.30;45.90;;;;;;5047931;28;20212;-68
2021/12/13 12:03:53;;;;;;;6.28;5.78;;;22.30;45.90;;;;;;5015230;28;20255;-69
2021/12/13 12:06:45;;;;;;;5.90;5.40;;;22.30;45.80;;;;;;5015293;28;20195;-69
2021/12/13 12:09:23;;;;;;;5.60;5.20;;;22.30;45.90;;;;;;5048457;28;20177;-69
2021/12/13 12:12:46;;;;;;;6.10;5.60;;;22.30;45.90;;;;;;5047985;28;20286;-69
2021/12/13 12:15:14;;;;;;;6.45;5.85;;;22.30;45.90;;;;;;5015351;28;20176;-69
2021/12/13 12:17:40;;;;;;;6.10;5.30;;;22.30;45.90;;;;;;5014892;28;20211;-69
2021/12/13 12:20:22;;;;;;;6.18;5.57;;;22.30;45.90;;;;;;5014786;28;20211;-69
2021/12/13 12:22:54;;;;;;;6.18;5.60;;;22.30;46.00;;;;;;5014821;28;20199;-68
2021/12/13 12:25:28;;;;;;;7.45;6.75;;;22.30;45.90;;;;;;5047944;28;20196;-69
2021/12/13 12:28:19;;;;;;;6.97;6.38;;;22.30;45.90;;;;;;5031334;28;20240;-69
2021/12/13 12:30:50;;;;;;;6.85;6.25;;;22.30;45.90;;;;;;5014497;28;20220;-69
2021/12/13 12:33:39;;;;;;;7.28;6.60;;;22.30;46.00;;;;;;5047976;28;20184;-69
2021/12/13 12:36:20;;;;;;;7.25;6.55;;;22.30;46.00;;;;;;5014480;28;20200;-69
2021/12/13 12:39:46;;;;;;;7.65;6.95;;;22.30;46.00;;;;;;5015138;28;20207;-69
2021/12/13 12:42:32;;;;;;;7.78;7.07;;;22.30;46.00;;;;;;5014423;28;20173;-69
2021/12/13 12:45:08;;;;;;;8.40;7.47;;;22.30;46.10;;;;;;5014999;28;20579;-68
2021/12/13 12:47:33;;;;;;;7.10;6.40;;;22.30;46.10;;;;;;5014164;28;20183;-68
2021/12/13 12:50:18;;;;;;;7.40;6.70;;;22.30;46.10;;;;;;5030698;28;20215;-69
2021/12/13 12:52:58;;;;;;;7.20;6.47;;;22.30;46.10;;;;;;5014574;28;20202;-70
2021/12/13 12:55:31;;;;;;;7.43;6.63;;;22.30;46.10;;;;;;5014327;28;20188;-69
2021/12/13 12:57:58;;;;;;;7.88;7.07;;;22.30;46.10;;;;;;5051864;28;20218;-69
2021/12/13 13:00:29;;;;;;;7.88;7.10;;;22.30;46.10;;;;;;5034925;28;20215;-69
2021/12/13 13:02:56;;;;;;;7.78;7.07;;;22.20;46.00;;;;;;5050702;28;20172;-69
2021/12/13 13:05:28;;;;;;;7.68;6.93;;;22.30;46.00;;;;;;5032996;28;20217;-69
2021/12/13 13:07:54;;;;;;;8.65;7.85;;;22.30;46.00;;;;;;5020824;28;20196;-69
2021/12/13 13:10:46;;;;;;;8.48;7.68;;;22.30;45.90;;;;;;5055209;28;20214;-69
2021/12/13 13:13:13;;;;;;;8.18;7.03;;;22.30;45.90;;;;;;5022385;28;20204;-69
2021/12/13 13:15:43;;;;;;;7.95;7.22;;;22.30;46.00;;;;;;5052827;28;20187;-69
2021/12/13 13:18:22;;;;;;;7.75;7.03;;;22.30;46.00;;;;;;5026132;28;20291;-69
2021/12/13 13:20:55;;;;;;;7.50;6.82;;;22.30;46.00;;;;;;5026808;28;20207;-69
2021/12/13 13:23:26;;;;;;;7.80;7.00;;;22.30;46.00;;;;;;5033345;28;20273;-69
2021/12/13 13:26:02;;;;;;;7.47;6.78;;;22.30;46.00;;;;;;5062214;28;20190;-69
2021/12/13 13:28:47;;;;;;;7.55;6.85;;;22.20;46.00;;;;;;5030546;28;20179;-69
2021/12/13 13:31:53;;;;;;;7.80;7.10;;;22.30;46.00;;;;;;5049795;28;20302;-69
2021/12/13 13:34:36;;;;;;;7.07;6.47;;;22.20;46.00;;;;;;5012362;28;20223;-68
2021/12/13 13:37:04;;;;;;;7.57;6.88;;;22.30;46.10;;;;;;5016343;28;20237;-70
2021/12/13 13:39:47;;;;;;;6.93;6.32;;;22.20;46.00;;;;;;5013142;28;20212;-70
2021/12/13 13:42:25;;;;;;;7.53;6.40;;;22.30;46.10;;;;;;5027289;28;20233;-70
2021/12/13 13:45:02;;;;;;;7.00;6.40;;;22.30;46.20;;;;;;5030761;28;20198;-69
2021/12/13 13:47:41;;;;;;;6.80;6.10;;;22.20;46.10;;;;;;5035456;28;20219;-68
2021/12/13 13:50:27;;;;;;;6.97;6.38;;;22.30;46.20;;;;;;5012856;28;20217;-69
2021/12/13 13:53:19;;;;;;;7.05;6.35;;;22.30;46.20;;;;;;5013117;28;20193;-68
2021/12/13 13:55:56;;;;;;;6.53;5.93;;;22.20;46.20;;;;;;4993159;28;20204;-69
2021/12/13 13:58:43;;;;;;;7.28;6.57;;;22.20;46.10;;;;;;5014446;28;20302;-68
2021/12/13 14:01:24;;;;;;;7.47;6.88;;;22.30;46.30;;;;;;5023896;28;20210;-69
2021/12/13 14:04:03;;;;;;;7.43;6.72;;;22.20;46.20;;;;;;5017970;28;20265;-70
2021/12/13 14:06:44;;;;;;;6.28;5.68;;;22.30;46.20;;;;;;5047581;28;20188;-70
2021/12/13 14:09:19;;;;;;;6.65;6.03;;;22.20;46.10;;;;;;5012894;28;20180;-68